Time;durP1;ratioP1;P1;durP2;ratioP2;P2;SDS_P1;SDS_P2;PMS_P1;PMS_P2;Temp;Humidity;BMP_temperature;BMP_pressure;BME280_temperature;BME280_humidity;BME280_pressure;Samples;Min_cycle;Max_cycle;Signal;HPM_P1;HPM_P2
2024/03/07 00:02:19;;;;;;;42.97;26.45;;;7.90;99.90;;;;;;4840474;29;20037;-86
2024/03/07 00:04:46;;;;;;;46.88;27.20;;;7.90;99.90;;;;;;4856475;29;20124;-87
2024/03/07 00:07:11;;;;;;;45.45;27.15;;;7.90;99.90;;;;;;4837894;29;20146;-86
2024/03/07 00:09:37;;;;;;;42.30;27.58;;;7.80;99.90;;;;;;4841654;29;20038;-86
2024/03/07 00:12:04;;;;;;;45.35;28.08;;;7.90;99.90;;;;;;4843366;29;20386;-88
2024/03/07 00:14:31;;;;;;;42.08;25.90;;;7.80;99.90;;;;;;4847970;29;20037;-85
2024/03/07 00:16:59;;;;;;;47.47;28.30;;;7.80;99.90;;;;;;4842571;29;20483;-85
2024/03/07 00:19:26;;;;;;;46.55;26.15;;;7.80;99.90;;;;;;4838140;29;20036;-85
2024/03/07 00:21:57;;;;;;;46.50;26.75;;;7.80;99.90;;;;;;4842865;29;20058;-86
2024/03/07 00:24:24;;;;;;;42.08;26.52;;;7.80;99.90;;;;;;4847463;29;20025;-86
2024/03/07 00:26:52;;;;;;;43.83;27.17;;;7.70;99.90;;;;;;4850911;29;20060;-85
2024/03/07 00:29:19;;;;;;;44.67;27.30;;;7.70;99.90;;;;;;4861469;29;20085;-86
2024/03/07 00:31:46;;;;;;;42.63;26.20;;;7.70;99.90;;;;;;4839933;29;20467;-86
2024/03/07 00:34:19;;;;;;;53.47;27.15;;;7.70;99.90;;;;;;4833631;29;20033;-87
2024/03/07 00:36:46;;;;;;;46.15;27.88;;;7.70;99.90;;;;;;4841557;29;20098;-87
2024/03/07 00:39:11;;;;;;;46.33;27.20;;;7.70;99.90;;;;;;4841229;29;20033;-88
2024/03/07 00:41:41;;;;;;;44.42;27.50;;;7.70;99.90;;;;;;4841285;29;20068;-87
2024/03/07 00:44:08;;;;;;;43.25;27.63;;;7.60;99.90;;;;;;4844068;29;20041;-88
2024/03/07 00:46:36;;;;;;;47.78;28.90;;;7.60;99.90;;;;;;4850201;29;20034;-86
2024/03/07 00:49:01;;;;;;;44.45;27.25;;;7.60;99.90;;;;;;4846022;29;20073;-86
2024/03/07 00:51:27;;;;;;;50.97;29.00;;;7.60;99.90;;;;;;4840198;29;20112;-85
2024/03/07 00:53:52;;;;;;;51.45;29.02;;;7.60;99.90;;;;;;4850753;29;20033;-88
2024/03/07 00:56:18;;;;;;;49.60;29.00;;;7.60;99.90;;;;;;4844462;29;20062;-87
2024/03/07 00:58:44;;;;;;;45.60;27.80;;;7.60;99.90;;;;;;4840408;29;20026;-88
2024/03/07 01:01:11;;;;;;;47.15;29.38;;;7.60;99.90;;;;;;4852987;29;20796;-88
2024/03/07 01:03:37;;;;;;;46.97;27.90;;;7.60;99.90;;;;;;4844056;29;20021;-87
2024/03/07 01:06:03;;;;;;;47.42;28.10;;;7.60;99.90;;;;;;4839908;29;20078;-88
2024/03/07 01:08:32;;;;;;;47.67;28.30;;;7.60;99.90;;;;;;4834493;29;20048;-87
2024/03/07 01:10:58;;;;;;;46.08;27.75;;;7.60;99.90;;;;;;4839774;29;20037;-87
2024/03/07 01:13:23;;;;;;;49.63;27.25;;;7.50;99.90;;;;;;4848372;29;20037;-87
2024/03/07 01:15:49;;;;;;;48.60;27.77;;;7.50;99.90;;;;;;4842508;29;20056;-86
2024/03/07 01:18:16;;;;;;;47.25;28.50;;;7.50;99.90;;;;;;4851788;29;20489;-87
2024/03/07 01:20:42;;;;;;;47.78;28.23;;;7.50;99.90;;;;;;4842681;29;20029;-87
2024/03/07 01:23:08;;;;;;;42.83;26.88;;;7.40;99.90;;;;;;4840995;29;20041;-87
2024/03/07 01:25:34;;;;;;;50.72;27.88;;;7.40;99.90;;;;;;4841840;29;20030;-88
2024/03/07 01:28:00;;;;;;;46.20;27.58;;;7.40;99.90;;;;;;4841494;29;20111;-87
2024/03/07 01:30:28;;;;;;;51.15;28.27;;;7.40;99.90;;;;;;4841028;29;20030;-87
2024/03/07 01:32:54;;;;;;;48.67;28.40;;;7.40;99.90;;;;;;4824032;29;20038;-88
2024/03/07 01:35:19;;;;;;;50.55;29.00;;;7.40;99.90;;;;;;4836515;29;20038;-88
2024/03/07 01:37:45;;;;;;;44.92;28.20;;;7.30;99.90;;;;;;4835376;29;20360;-88
2024/03/07 01:40:11;;;;;;;46.95;28.23;;;7.30;99.90;;;;;;4837920;29;20030;-87
2024/03/07 01:42:36;;;;;;;52.25;28.25;;;7.30;99.90;;;;;;4855448;29;20064;-87
2024/03/07 01:45:03;;;;;;;49.95;28.58;;;7.30;99.90;;;;;;4842788;29;20025;-86
2024/03/07 01:47:28;;;;;;;47.97;28.52;;;7.30;99.90;;;;;;4846670;29;20121;-87
2024/03/07 01:49:54;;;;;;;48.08;28.95;;;7.30;99.90;;;;;;4838719;29;20178;-85
2024/03/07 01:52:22;;;;;;;48.97;30.50;;;7.20;99.90;;;;;;4843348;29;20049;-85
2024/03/07 01:54:48;;;;;;;54.15;29.75;;;7.20;99.90;;;;;;4842200;29;20053;-86
2024/03/07 01:57:16;;;;;;;47.10;27.90;;;7.20;99.90;;;;;;4841532;29;20053;-86
2024/03/07 01:59:43;;;;;;;50.00;28.42;;;7.20;99.90;;;;;;4828892;29;20034;-86
2024/03/07 02:02:08;;;;;;;47.90;27.60;;;7.20;99.90;;;;;;4837350;29;20125;-87
2024/03/07 02:04:34;;;;;;;50.72;27.90;;;7.10;99.90;;;;;;4855429;29;20112;-85
2024/03/07 02:06:59;;;;;;;48.33;28.95;;;7.10;99.90;;;;;;4852221;29;20446;-86
2024/03/07 02:09:25;;;;;;;51.20;28.23;;;7.10;99.90;;;;;;4841312;29;20499;-85
2024/03/07 02:11:51;;;;;;;49.67;28.10;;;7.20;99.90;;;;;;4839651;29;20026;-84
2024/03/07 02:14:16;;;;;;;51.60;30.42;;;7.20;99.90;;;;;;4840997;29;20166;-87
2024/03/07 02:16:42;;;;;;;49.05;28.25;;;7.20;99.90;;;;;;4844090;29;20046;-85
2024/03/07 02:19:10;;;;;;;50.08;28.00;;;7.10;99.90;;;;;;4846435;29;20034;-84
2024/03/07 02:21:35;;;;;;;52.67;29.15;;;7.10;99.90;;;;;;4857061;29;20440;-86
2024/03/07 02:24:01;;;;;;;52.85;28.90;;;7.10;99.90;;;;;;4836842;29;20041;-85
2024/03/07 02:26:27;;;;;;;47.75;27.83;;;7.10;99.90;;;;;;4834324;29;20499;-85
2024/03/07 02:28:52;;;;;;;51.30;29.08;;;7.10;99.90;;;;;;4848664;29;20060;-86
2024/03/07 02:31:18;;;;;;;51.60;28.88;;;7.10;99.90;;;;;;4852506;29;20046;-86
2024/03/07 02:33:44;;;;;;;50.97;28.42;;;7.10;99.90;;;;;;4846970;29;20030;-85
2024/03/07 02:36:10;;;;;;;50.95;27.83;;;7.10;99.90;;;;;;4858002;29;20056;-88
2024/03/07 02:38:35;;;;;;;50.58;28.55;;;7.10;99.90;;;;;;4848036;29;20034;-87
2024/03/07 02:41:01;;;;;;;51.50;29.52;;;7.00;99.90;;;;;;4845060;29;20492;-87
2024/03/07 02:43:26;;;;;;;47.78;27.92;;;7.00;99.90;;;;;;4844022;29;20564;-87
2024/03/07 02:45:52;;;;;;;51.55;28.27;;;7.00;99.90;;;;;;4845059;29;20026;-86
2024/03/07 02:48:18;;;;;;;54.35;28.42;;;6.90;99.90;;;;;;4848583;29;20046;-85
2024/03/07 02:50:43;;;;;;;50.05;28.00;;;6.90;99.90;;;;;;4843776;29;20090;-85
2024/03/07 02:53:09;;;;;;;47.60;26.58;;;6.80;99.90;;;;;;4842760;29;20041;-86
2024/03/07 02:55:35;;;;;;;49.80;28.92;;;6.80;99.90;;;;;;4840379;29;20057;-84
2024/03/07 02:58:00;;;;;;;54.88;28.20;;;6.80;99.90;;;;;;4841988;29;20049;-85
2024/03/07 03:00:26;;;;;;;48.35;28.92;;;6.70;99.90;;;;;;4841721;29;20069;-86
2024/03/07 03:02:52;;;;;;;49.10;26.50;;;6.70;99.90;;;;;;4844173;29;20379;-85
2024/03/07 03:05:18;;;;;;;50.08;28.25;;;6.70;99.90;;;;;;4842545;29;20030;-86
2024/03/07 03:07:51;;;;;;;44.35;26.63;;;6.70;99.90;;;;;;4859646;29;20415;-86
2024/03/07 03:10:17;;;;;;;52.88;28.55;;;6.70;99.90;;;;;;4843034;29;20054;-86
2024/03/07 03:12:44;;;;;;;48.67;27.40;;;6.60;99.90;;;;;;4843171;29;20029;-86
2024/03/07 03:15:11;;;;;;;48.35;28.80;;;6.60;99.90;;;;;;4829864;29;20389;-87
2024/03/07 03:17:37;;;;;;;46.47;26.80;;;6.60;99.90;;;;;;4849652;29;20033;-86
2024/03/07 03:20:09;;;;;;;51.20;27.90;;;6.60;99.90;;;;;;4844038;29;20026;-86
2024/03/07 03:22:35;;;;;;;54.05;29.05;;;6.60;99.90;;;;;;4833313;29;20034;-86
2024/03/07 03:25:01;;;;;;;48.38;28.38;;;6.50;99.90;;;;;;4844300;29;20030;-85
2024/03/07 03:27:26;;;;;;;51.85;28.55;;;6.60;99.90;;;;;;4844824;29;20026;-85
2024/03/07 03:29:52;;;;;;;53.83;30.85;;;6.50;99.90;;;;;;4844519;29;20038;-88
2024/03/07 03:32:17;;;;;;;51.80;28.23;;;6.50;99.90;;;;;;4844750;29;20022;-85
2024/03/07 03:34:43;;;;;;;57.78;28.67;;;6.50;99.90;;;;;;4843726;29;20026;-84
2024/03/07 03:37:09;;;;;;;50.10;28.20;;;6.40;99.90;;;;;;4836880;29;20083;-86
2024/03/07 03:39:35;;;;;;;56.33;28.35;;;6.40;99.90;;;;;;4837777;29;20066;-86
2024/03/07 03:42:00;;;;;;;54.60;29.50;;;6.40;99.90;;;;;;4842690;29;20062;-87
2024/03/07 03:44:26;;;;;;;52.65;29.08;;;6.40;99.90;;;;;;4841971;29;20033;-86
2024/03/07 03:46:51;;;;;;;53.05;28.33;;;6.30;99.90;;;;;;4839667;29;20030;-87
2024/03/07 03:49:17;;;;;;;54.47;29.27;;;6.40;99.90;;;;;;4834910;29;20030;-89
2024/03/07 03:51:42;;;;;;;53.10;29.77;;;6.40;99.90;;;;;;4851006;29;20033;-87
2024/03/07 03:54:08;;;;;;;61.72;30.60;;;6.40;99.90;;;;;;4856157;29;20074;-86
2024/03/07 03:56:33;;;;;;;54.10;30.90;;;6.40;99.90;;;;;;4844393;29;20120;-88
2024/03/07 03:58:59;;;;;;;55.03;28.85;;;6.50;99.90;;;;;;4843975;29;20086;-86
2024/03/07 04:01:25;;;;;;;54.75;30.20;;;6.50;99.90;;;;;;4836260;29;20038;-87
2024/03/07 04:03:50;;;;;;;60.13;30.98;;;6.60;99.90;;;;;;4841278;29;20030;-87
2024/03/07 04:06:16;;;;;;;52.22;30.10;;;6.60;99.90;;;;;;4843812;29;20034;-88
2024/03/07 04:08:41;;;;;;;57.17;30.58;;;6.70;99.90;;;;;;4841634;29;20126;-89
2024/03/07 04:11:09;;;;;;;57.92;30.92;;;6.70;99.90;;;;;;4851624;29;20045;-86
2024/03/07 04:13:35;;;;;;;53.72;30.80;;;6.70;99.90;;;;;;4837616;29;20026;-87
2024/03/07 04:16:01;;;;;;;56.38;31.88;;;6.80;99.90;;;;;;4861108;29;20045;-88
2024/03/07 04:18:26;;;;;;;54.92;30.95;;;6.80;99.90;;;;;;4845446;29;20061;-87
2024/03/07 04:20:52;;;;;;;58.15;31.50;;;6.80;99.90;;;;;;4826046;29;20029;-87
2024/03/07 04:23:18;;;;;;;55.42;31.67;;;6.80;99.90;;;;;;4829719;29;20091;-86
2024/03/07 04:25:44;;;;;;;63.45;32.10;;;6.80;99.90;;;;;;4858825;29;20034;-86
2024/03/07 04:28:10;;;;;;;54.60;31.30;;;6.80;99.90;;;;;;4862247;29;20486;-86
2024/03/07 04:30:35;;;;;;;56.17;30.88;;;6.90;99.90;;;;;;4858129;29;20029;-86
2024/03/07 04:33:01;;;;;;;63.75;32.53;;;6.90;99.90;;;;;;4842980;29;20024;-86
2024/03/07 04:35:26;;;;;;;59.28;32.60;;;6.90;99.90;;;;;;4842088;29;20029;-86
2024/03/07 04:37:52;;;;;;;54.28;30.33;;;6.90;99.90;;;;;;4840804;29;20034;-86
2024/03/07 04:40:18;;;;;;;56.38;31.50;;;6.90;99.90;;;;;;4840179;29;20054;-86
2024/03/07 04:42:45;;;;;;;52.78;31.17;;;6.90;99.90;;;;;;4837864;29;20058;-85
2024/03/07 04:45:13;;;;;;;63.72;32.33;;;6.90;99.90;;;;;;4861116;29;20109;-86
2024/03/07 04:47:42;;;;;;;59.28;32.10;;;6.90;99.90;;;;;;4861145;29;20049;-86
2024/03/07 04:50:10;;;;;;;55.90;32.90;;;6.90;99.90;;;;;;4841209;29;20034;-87
2024/03/07 04:52:37;;;;;;;59.28;32.20;;;6.90;99.90;;;;;;4841556;29;20038;-87
2024/03/07 04:55:05;;;;;;;57.45;31.10;;;6.80;99.90;;;;;;4842528;29;20037;-87
2024/03/07 04:57:30;;;;;;;62.92;31.85;;;6.70;99.90;;;;;;4842500;29;20844;-87
2024/03/07 04:59:56;;;;;;;61.83;33.22;;;6.70;99.90;;;;;;4842359;29;20038;-87
2024/03/07 05:02:23;;;;;;;56.53;32.47;;;6.60;99.90;;;;;;4843108;29;20037;-87
2024/03/07 05:04:50;;;;;;;57.60;31.98;;;6.60;99.90;;;;;;4839766;29;20026;-87
2024/03/07 05:07:16;;;;;;;55.88;31.70;;;6.60;99.90;;;;;;4824964;29;20106;-86
2024/03/07 05:09:41;;;;;;;57.45;31.35;;;6.50;99.90;;;;;;4826543;29;20483;-85
2024/03/07 05:12:07;;;;;;;52.17;27.75;;;6.50;99.90;;;;;;4836440;29;20034;-86
2024/03/07 05:14:33;;;;;;;52.90;29.83;;;6.50;99.90;;;;;;4842657;29;20123;-86
2024/03/07 05:17:04;;;;;;;55.33;30.50;;;6.50;99.90;;;;;;4842848;29;20038;-87
2024/03/07 05:19:31;;;;;;;53.30;29.92;;;6.50;99.90;;;;;;4841739;29;20041;-87
2024/03/07 05:21:57;;;;;;;53.63;30.15;;;6.40;99.90;;;;;;4842653;29;20041;-87
2024/03/07 05:24:23;;;;;;;55.42;30.77;;;6.40;99.90;;;;;;4842680;29;20455;-87
2024/03/07 05:26:49;;;;;;;50.33;29.40;;;6.40;99.90;;;;;;4842255;29;20053;-88
2024/03/07 05:29:15;;;;;;;53.13;29.05;;;6.40;99.90;;;;;;4841092;29;20041;-84
2024/03/07 05:31:49;;;;;;;61.95;29.05;;;6.40;99.90;;;;;;4840537;29;20030;-88
2024/03/07 05:34:18;;;;;;;54.03;30.95;;;6.30;99.90;;;;;;4820253;29;20022;-85
2024/03/07 05:36:46;;;;;;;52.33;28.95;;;6.30;99.90;;;;;;4841756;29;20054;-86
2024/03/07 05:39:16;;;;;;;49.45;28.40;;;6.30;99.90;;;;;;4835447;29;20613;-87
2024/03/07 05:41:43;;;;;;;49.60;28.30;;;6.20;99.90;;;;;;4840698;29;20058;-86
2024/03/07 05:44:08;;;;;;;53.63;30.45;;;6.30;99.90;;;;;;4827577;29;20057;-87
2024/03/07 05:46:41;;;;;;;55.92;30.10;;;6.30;99.90;;;;;;4824029;29;20487;-88
2024/03/07 05:49:09;;;;;;;59.53;29.98;;;6.30;99.90;;;;;;4833991;29;20094;-88
2024/03/07 05:51:36;;;;;;;59.78;30.35;;;6.30;99.90;;;;;;4844915;29;20041;-84
2024/03/07 05:54:06;;;;;;;51.92;30.23;;;6.30;99.90;;;;;;4855411;29;20192;-87
2024/03/07 05:56:35;;;;;;;57.35;31.45;;;6.30;99.90;;;;;;4848111;29;20069;-84
2024/03/07 05:59:04;;;;;;;55.40;30.40;;;6.30;99.90;;;;;;4853364;29;20052;-85
2024/03/07 06:01:32;;;;;;;53.83;30.42;;;6.20;99.90;;;;;;4840580;29;20057;-88
2024/03/07 06:03:59;;;;;;;55.15;30.20;;;6.20;99.90;;;;;;4843013;29;20026;-86
2024/03/07 06:06:25;;;;;;;53.55;29.55;;;6.20;99.90;;;;;;4850101;29;20156;-86
2024/03/07 06:08:50;;;;;;;55.88;29.98;;;6.10;99.90;;;;;;4852218;29;20045;-86
2024/03/07 06:11:21;;;;;;;57.42;29.83;;;6.10;99.90;;;;;;4845055;29;20037;-87
2024/03/07 06:13:49;;;;;;;54.00;30.85;;;6.10;99.90;;;;;;4845371;29;20034;-85
2024/03/07 06:16:15;;;;;;;54.47;29.73;;;6.10;99.90;;;;;;4829443;29;20052;-85
2024/03/07 06:18:41;;;;;;;58.63;30.80;;;6.10;99.90;;;;;;4827569;29;20117;-86
2024/03/07 06:21:08;;;;;;;58.55;29.77;;;6.10;99.90;;;;;;4840700;29;20034;-88
2024/03/07 06:23:33;;;;;;;57.47;30.00;;;6.10;99.90;;;;;;4845562;29;20486;-85
2024/03/07 06:26:00;;;;;;;50.92;28.30;;;6.10;99.90;;;;;;4843656;29;20053;-87
2024/03/07 06:28:28;;;;;;;54.05;29.38;;;6.00;99.90;;;;;;4854718;29;20120;-87
2024/03/07 06:30:54;;;;;;;53.58;28.83;;;6.00;99.90;;;;;;4844937;29;20063;-88
2024/03/07 06:33:21;;;;;;;51.55;29.02;;;5.90;99.90;;;;;;4844528;29;20030;-84
2024/03/07 06:35:46;;;;;;;53.83;28.80;;;5.90;99.90;;;;;;4828466;29;20069;-84
2024/03/07 06:38:12;;;;;;;53.85;29.55;;;5.90;99.90;;;;;;4826588;29;20034;-86
2024/03/07 06:40:40;;;;;;;52.08;29.08;;;5.90;99.90;;;;;;4840938;29;20034;-84
2024/03/07 06:43:06;;;;;;;55.28;30.63;;;5.90;99.90;;;;;;4841895;29;20050;-85
2024/03/07 06:45:33;;;;;;;52.33;28.70;;;5.80;99.90;;;;;;4842304;29;20030;-85
2024/03/07 06:47:58;;;;;;;57.42;30.58;;;5.90;99.90;;;;;;4843789;29;20452;-85
2024/03/07 06:50:24;;;;;;;60.45;31.33;;;5.90;99.90;;;;;;4843970;29;20030;-85
2024/03/07 06:52:49;;;;;;;53.75;30.40;;;5.90;99.90;;;;;;4842610;29;20033;-84
2024/03/07 06:55:19;;;;;;;53.97;29.27;;;5.90;99.90;;;;;;4842128;29;20037;-85
2024/03/07 06:57:45;;;;;;;54.60;29.67;;;5.90;99.90;;;;;;4840763;29;20033;-84
2024/03/07 07:00:12;;;;;;;57.80;29.33;;;5.80;99.90;;;;;;4834921;29;20039;-84
2024/03/07 07:02:39;;;;;;;50.17;29.80;;;5.80;99.90;;;;;;4834561;29;20439;-84
2024/03/07 07:05:11;;;;;;;55.97;30.73;;;5.80;99.90;;;;;;4841046;29;20041;-84
2024/03/07 07:07:43;;;;;;;53.38;29.15;;;5.80;99.90;;;;;;4842420;29;20397;-84
2024/03/07 07:10:15;;;;;;;53.35;30.45;;;5.80;99.90;;;;;;4843105;29;20042;-85
2024/03/07 07:12:42;;;;;;;57.47;30.05;;;5.90;99.90;;;;;;4841418;29;20402;-85
2024/03/07 07:15:08;;;;;;;57.17;29.38;;;5.90;99.90;;;;;;4841544;29;20037;-85
2024/03/07 07:17:33;;;;;;;58.33;31.10;;;5.90;99.90;;;;;;4840276;29;20042;-85
2024/03/07 07:19:59;;;;;;;54.88;29.92;;;5.80;99.90;;;;;;4837600;29;20383;-84
2024/03/07 07:22:25;;;;;;;61.47;30.13;;;5.90;99.90;;;;;;4841126;29;20025;-84
2024/03/07 07:24:51;;;;;;;56.42;30.88;;;5.90;99.90;;;;;;4841725;29;20029;-84
2024/03/07 07:27:18;;;;;;;55.42;30.85;;;5.90;99.90;;;;;;4839889;29;20194;-84
2024/03/07 07:29:44;;;;;;;59.75;30.95;;;5.90;99.90;;;;;;4841117;29;20042;-84
2024/03/07 07:32:12;;;;;;;63.80;30.98;;;5.90;99.90;;;;;;4840721;29;20155;-84
2024/03/07 07:34:38;;;;;;;58.60;32.42;;;6.00;99.90;;;;;;4840610;29;20053;-84
2024/03/07 07:37:05;;;;;;;62.97;31.10;;;6.00;99.90;;;;;;4840399;29;20057;-84
2024/03/07 07:39:31;;;;;;;53.00;30.67;;;6.00;99.90;;;;;;4840009;29;20049;-84
2024/03/07 07:41:57;;;;;;;76.45;33.58;;;6.00;99.90;;;;;;4841652;29;20060;-87
2024/03/07 07:44:22;;;;;;;58.80;31.73;;;6.10;99.90;;;;;;4841555;29;20379;-88
2024/03/07 07:46:49;;;;;;;54.13;32.35;;;6.10;99.90;;;;;;4841173;29;20112;-86
2024/03/07 07:49:15;;;;;;;61.40;32.00;;;6.10;99.90;;;;;;4840404;29;20037;-87
2024/03/07 07:51:41;;;;;;;60.08;32.72;;;6.20;99.90;;;;;;4842016;29;20026;-86
2024/03/07 07:54:09;;;;;;;59.28;31.13;;;6.40;99.90;;;;;;4841464;29;20137;-87
2024/03/07 07:56:35;;;;;;;60.13;32.28;;;6.40;99.90;;;;;;4834012;29;20057;-86
2024/03/07 07:59:05;;;;;;;65.97;33.08;;;6.40;99.90;;;;;;4838046;29;20048;-85
2024/03/07 08:01:33;;;;;;;58.97;31.77;;;6.40;99.90;;;;;;4843499;29;20486;-85
2024/03/07 08:03:59;;;;;;;55.30;31.55;;;6.50;99.90;;;;;;4841709;29;20102;-87
2024/03/07 08:06:25;;;;;;;60.75;32.08;;;7.10;99.90;;;;;;4841507;29;20479;-86
2024/03/07 08:08:50;;;;;;;52.17;31.35;;;6.60;99.90;;;;;;4841432;29;20026;-86
2024/03/07 08:11:17;;;;;;;53.90;32.20;;;6.60;99.90;;;;;;4840440;29;20038;-86
2024/03/07 08:13:43;;;;;;;53.80;29.80;;;6.60;99.90;;;;;;4840009;29;20490;-86
2024/03/07 08:16:11;;;;;;;54.72;30.42;;;6.60;99.90;;;;;;4841986;29;20049;-87
2024/03/07 08:18:36;;;;;;;54.90;30.17;;;6.70;99.90;;;;;;4828123;29;20059;-86
2024/03/07 08:21:02;;;;;;;53.72;29.10;;;6.70;99.90;;;;;;4841018;29;20125;-84
2024/03/07 08:23:31;;;;;;;51.90;30.58;;;6.80;99.90;;;;;;4841406;29;20034;-86
2024/03/07 08:25:56;;;;;;;54.60;30.45;;;6.70;99.90;;;;;;4840615;29;20403;-82
2024/03/07 08:28:23;;;;;;;51.65;29.60;;;6.70;99.90;;;;;;4841299;29;20025;-85
2024/03/07 08:30:48;;;;;;;51.58;28.85;;;6.70;99.90;;;;;;4840457;29;20045;-82
2024/03/07 08:33:14;;;;;;;47.88;28.17;;;6.80;99.90;;;;;;4841139;29;20037;-82
2024/03/07 08:35:40;;;;;;;47.50;28.20;;;6.80;99.90;;;;;;4839296;29;20050;-82
2024/03/07 08:38:08;;;;;;;50.20;28.75;;;6.80;99.90;;;;;;4841503;29;20402;-82
2024/03/07 08:40:34;;;;;;;48.33;26.92;;;6.70;99.90;;;;;;4841441;29;20071;-83
2024/03/07 08:43:00;;;;;;;44.10;26.65;;;6.80;99.90;;;;;;4839638;29;20153;-85
2024/03/07 08:45:27;;;;;;;46.42;26.45;;;6.80;99.90;;;;;;4842378;29;20071;-84
2024/03/07 08:47:54;;;;;;;52.15;26.10;;;6.90;99.90;;;;;;4840914;29;20042;-85
2024/03/07 08:50:20;;;;;;;49.65;26.17;;;7.00;99.90;;;;;;4841458;29;20038;-85
2024/03/07 08:52:50;;;;;;;45.08;27.73;;;7.00;99.90;;;;;;4842165;29;20040;-86
2024/03/07 08:55:18;;;;;;;41.47;24.10;;;7.10;99.90;;;;;;4841357;29;20034;-85
2024/03/07 08:57:46;;;;;;;39.63;23.83;;;7.20;99.90;;;;;;4841845;29;20511;-86
2024/03/07 09:00:21;;;;;;;36.95;22.52;;;7.20;99.90;;;;;;4843194;29;20035;-87
2024/03/07 09:02:50;;;;;;;39.13;23.77;;;7.20;99.90;;;;;;4860546;29;20033;-85
2024/03/07 09:05:16;;;;;;;39.72;23.17;;;7.20;99.90;;;;;;4860720;29;20055;-85
2024/03/07 09:07:44;;;;;;;37.45;22.65;;;7.30;99.90;;;;;;4836358;29;20057;-84
2024/03/07 09:10:10;;;;;;;36.72;20.83;;;7.40;99.90;;;;;;4825315;29;20084;-84
2024/03/07 09:12:36;;;;;;;32.95;21.10;;;7.40;99.90;;;;;;4841167;29;20475;-86
2024/03/07 09:15:03;;;;;;;41.53;21.55;;;7.40;99.90;;;;;;4841596;29;20050;-88
2024/03/07 09:17:29;;;;;;;31.67;20.52;;;7.40;99.90;;;;;;4837021;29;20046;-86
2024/03/07 09:19:55;;;;;;;32.92;20.42;;;7.40;99.90;;;;;;4841510;29;20036;-87
2024/03/07 09:22:21;;;;;;;35.90;18.88;;;7.40;99.90;;;;;;4850635;29;20041;-87
2024/03/07 09:24:46;;;;;;;33.45;19.13;;;7.40;99.90;;;;;;4848501;29;20276;-85
2024/03/07 09:27:14;;;;;;;27.08;17.83;;;7.50;99.90;;;;;;4842416;29;20030;-88
2024/03/07 09:29:40;;;;;;;28.83;18.63;;;7.50;99.90;;;;;;4842317;29;20097;-87
2024/03/07 09:32:09;;;;;;;29.13;18.90;;;7.50;99.90;;;;;;4843482;29;20527;-87
2024/03/07 09:34:35;;;;;;;32.13;19.83;;;7.50;99.90;;;;;;4843477;29;20026;-92
2024/03/07 09:37:02;;;;;;;34.00;19.88;;;7.60;99.90;;;;;;4842972;29;20046;-89
2024/03/07 09:39:27;;;;;;;29.85;20.02;;;7.60;99.90;;;;;;4840088;29;20026;-89
2024/03/07 09:41:54;;;;;;;29.60;18.80;;;7.70;99.90;;;;;;4841985;29;20058;-88
2024/03/07 09:44:23;;;;;;;28.35;18.48;;;7.70;99.90;;;;;;4842276;29;20038;-88
2024/03/07 09:46:50;;;;;;;25.77;17.73;;;7.80;99.90;;;;;;4832594;29;20034;-89
2024/03/07 09:49:17;;;;;;;26.25;16.90;;;7.80;99.90;;;;;;4859666;29;20389;-91
2024/03/07 09:51:45;;;;;;;27.90;17.88;;;7.80;99.90;;;;;;4843453;29;20046;-89
2024/03/07 09:54:10;;;;;;;24.85;16.58;;;7.80;99.90;;;;;;4843637;29;20033;-88
2024/03/07 09:56:37;;;;;;;23.65;16.70;;;7.80;99.90;;;;;;4843597;29;20379;-90
2024/03/07 09:59:04;;;;;;;25.25;17.02;;;7.90;99.90;;;;;;4841411;29;20440;-84
2024/03/07 10:01:34;;;;;;;27.17;17.50;;;7.90;99.90;;;;;;4838942;29;20559;-89
2024/03/07 10:04:18;;;;;;;22.30;16.17;;;8.00;99.90;;;;;;4842414;29;20026;-85
2024/03/07 10:06:47;;;;;;;27.05;17.80;;;8.00;99.90;;;;;;4823650;29;20064;-86
2024/03/07 10:09:14;;;;;;;27.58;16.02;;;8.00;99.90;;;;;;4828188;29;20034;-88
2024/03/07 10:11:41;;;;;;;23.20;16.77;;;8.00;99.90;;;;;;4842824;29;20044;-90
2024/03/07 10:14:07;;;;;;;25.77;17.83;;;8.10;99.90;;;;;;4825199;29;20038;-88
2024/03/07 10:16:33;;;;;;;24.58;17.23;;;8.10;99.90;;;;;;4825118;29;20046;-89
2024/03/07 10:19:00;;;;;;;24.02;16.35;;;8.20;99.90;;;;;;4826368;29;20022;-89
2024/03/07 10:21:26;;;;;;;24.88;17.45;;;8.20;99.90;;;;;;4841040;29;20034;-89
2024/03/07 10:24:06;;;;;;;24.13;16.48;;;8.20;99.90;;;;;;4824227;29;20029;-89
2024/03/07 10:26:37;;;;;;;25.88;18.30;;;8.20;99.90;;;;;;4842738;29;20085;-90
2024/03/07 10:29:07;;;;;;;27.10;18.38;;;8.30;99.90;;;;;;4844482;29;20045;-91
2024/03/07 10:31:34;;;;;;;27.98;18.58;;;8.30;99.90;;;;;;4842998;29;20127;-90
2024/03/07 10:34:01;;;;;;;26.00;17.58;;;8.40;99.90;;;;;;4842907;29;20106;-90
2024/03/07 10:36:30;;;;;;;25.83;18.10;;;8.40;99.90;;;;;;4841305;29;20038;-90
2024/03/07 10:38:56;;;;;;;24.30;16.75;;;8.40;99.90;;;;;;4836841;29;20037;-89
2024/03/07 10:41:27;;;;;;;28.92;18.65;;;8.50;99.90;;;;;;4843088;29;20053;-89
2024/03/07 10:43:58;;;;;;;25.67;17.92;;;8.40;99.90;;;;;;4840965;29;20033;-91
2024/03/07 10:46:25;;;;;;;26.50;17.67;;;8.50;99.90;;;;;;4853296;29;20026;-89
2024/03/07 10:48:55;;;;;;;22.95;17.67;;;8.50;99.90;;;;;;4833302;29;20038;-87
2024/03/07 10:51:46;;;;;;;30.02;17.85;;;8.50;99.90;;;;;;4852090;29;20030;-92
2024/03/07 10:54:33;;;;;;;27.30;18.33;;;8.60;99.90;;;;;;4848488;29;20466;-92
2024/03/07 10:57:22;;;;;;;29.50;18.70;;;8.60;99.90;;;;;;4849723;29;20041;-85
2024/03/07 10:59:50;;;;;;;24.50;16.70;;;9.30;99.90;;;;;;4848991;29;20097;-89
2024/03/07 11:02:45;;;;;;;27.50;16.27;;;8.60;99.90;;;;;;4839357;29;20576;-88
2024/03/07 11:05:13;;;;;;;25.13;15.95;;;8.60;99.90;;;;;;4825965;29;20038;-89
2024/03/07 11:07:39;;;;;;;25.27;16.17;;;8.70;99.90;;;;;;4826400;29;20058;-87
2024/03/07 11:10:11;;;;;;;25.80;17.40;;;8.70;99.90;;;;;;4826044;29;20026;-89
2024/03/07 11:12:39;;;;;;;29.88;18.42;;;8.70;99.90;;;;;;4826808;29;20087;-90
2024/03/07 11:15:06;;;;;;;25.67;17.73;;;8.70;99.90;;;;;;4826009;29;20033;-91
2024/03/07 11:17:33;;;;;;;22.48;15.93;;;8.70;99.90;;;;;;4824195;29;20045;-89
2024/03/07 11:20:22;;;;;;;28.05;17.15;;;8.80;99.90;;;;;;4826422;29;20110;-88
2024/03/07 11:22:49;;;;;;;24.80;17.25;;;9.00;99.90;;;;;;4841590;29;20044;-89
2024/03/07 11:25:18;;;;;;;22.88;14.70;;;9.10;99.90;;;;;;4844262;29;20142;-87
2024/03/07 11:28:01;;;;;;;31.80;16.75;;;9.10;99.90;;;;;;4826206;29;20030;-86
2024/03/07 11:30:26;;;;;;;24.10;15.10;;;9.10;99.90;;;;;;4826587;29;20054;-89
2024/03/07 11:32:53;;;;;;;21.23;14.40;;;9.10;99.90;;;;;;4826214;29;20050;-89
2024/03/07 11:35:37;;;;;;;21.42;14.98;;;9.10;99.90;;;;;;4838276;29;20041;-87
2024/03/07 11:38:06;;;;;;;21.33;14.27;;;9.20;99.90;;;;;;4844611;29;20234;-90
2024/03/07 11:40:32;;;;;;;21.48;15.38;;;9.30;99.90;;;;;;4843962;29;20042;-88
2024/03/07 11:43:04;;;;;;;20.52;13.90;;;9.40;99.90;;;;;;4841772;29;20070;-90
2024/03/07 11:45:33;;;;;;;20.20;14.18;;;9.80;99.90;;;;;;4842204;29;20085;-89
2024/03/07 11:48:04;;;;;;;20.02;14.35;;;9.40;99.90;;;;;;4845432;29;20033;-91
2024/03/07 11:50:34;;;;;;;;;;;9.40;99.90;;;;;;4861829;29;20050;-85
2024/03/07 11:53:01;;;;;;;20.48;14.60;;;9.50;99.90;;;;;;4862290;29;19912;-89
2024/03/07 11:55:33;;;;;;;19.58;14.20;;;9.50;99.90;;;;;;4863759;29;20034;-88
2024/03/07 11:57:59;;;;;;;24.20;15.13;;;9.50;99.90;;;;;;4862856;29;20044;-86
2024/03/07 12:00:26;;;;;;;22.85;15.65;;;9.50;99.90;;;;;;4861925;29;20029;-87
2024/03/07 12:02:54;;;;;;;25.98;15.27;;;10.50;99.90;;;;;;4854494;29;20037;-87
2024/03/07 12:05:20;;;;;;;26.98;16.85;;;9.50;99.90;;;;;;4839683;29;20030;-86
2024/03/07 12:07:45;;;;;;;22.38;15.95;;;9.50;99.90;;;;;;4842748;29;20041;-87
2024/03/07 12:10:11;;;;;;;24.02;15.90;;;9.60;99.90;;;;;;4843867;29;20497;-87
2024/03/07 12:12:38;;;;;;;26.88;17.30;;;9.60;99.90;;;;;;4844202;29;20022;-88
2024/03/07 12:15:15;;;;;;;21.05;15.90;;;9.70;99.90;;;;;;4845168;29;20053;-89
2024/03/07 12:17:42;;;;;;;29.92;16.50;;;9.70;99.90;;;;;;4843734;29;20069;-88
2024/03/07 12:20:24;;;;;;;24.08;17.63;;;9.80;99.90;;;;;;4843628;29;20030;-88
2024/03/07 12:22:53;;;;;;;26.42;18.45;;;9.80;99.90;;;;;;4843913;29;20038;-88
2024/03/07 12:25:21;;;;;;;27.17;18.15;;;9.80;99.90;;;;;;4843292;29;20037;-87
2024/03/07 12:28:00;;;;;;;24.52;16.40;;;9.80;99.90;;;;;;4833923;29;20062;-89
2024/03/07 12:30:27;;;;;;;26.25;18.02;;;9.80;99.90;;;;;;4844097;29;20053;-88
2024/03/07 12:32:52;;;;;;;27.02;17.85;;;9.90;99.90;;;;;;4841821;29;20509;-89
2024/03/07 12:35:18;;;;;;;22.08;15.82;;;9.80;99.90;;;;;;4825614;29;20032;-88
2024/03/07 12:37:46;;;;;;;26.35;17.85;;;9.80;99.90;;;;;;4831006;29;20095;-88
2024/03/07 12:40:17;;;;;;;27.30;17.70;;;9.80;99.90;;;;;;4843892;29;20041;-87